createdAt,value
2022-10-17T00:00:34.569Z,96873.91
2022-10-17T00:03:03.171Z,96904.59
2022-10-17T00:05:32.509Z,96894.94
2022-10-17T00:08:00.551Z,96896.66
2022-10-17T00:10:28.587Z,96883.34
2022-10-17T00:12:56.599Z,96899.03
2022-10-17T00:15:24.540Z,96906.09
2022-10-17T00:17:52.610Z,96887.03
2022-10-17T00:20:20.852Z,96891.88
2022-10-17T00:22:50.273Z,96890.13
2022-10-17T00:25:20.168Z,96895.16
2022-10-17T00:27:48.201Z,96892.28
2022-10-17T00:30:17.215Z,96908.16
2022-10-17T00:32:45.267Z,96880.59
2022-10-17T00:35:13.388Z,96882.00
2022-10-17T00:37:41.399Z,96901.09
2022-10-17T00:40:12.218Z,96897.59
2022-10-17T00:42:40.245Z,96892.59
2022-10-17T00:45:18.684Z,96877.41
2022-10-17T00:47:50.351Z,96881.94
2022-10-17T00:50:18.850Z,96893.94
2022-10-17T00:52:47.266Z,96891.47
2022-10-17T00:55:19.803Z,96890.66
2022-10-17T00:57:48.130Z,96821.81
2022-10-17T01:00:18.129Z,96880.09
2022-10-17T01:02:46.716Z,96896.31
2022-10-17T01:05:15.782Z,96888.28
2022-10-17T01:07:44.469Z,96884.91
2022-10-17T01:10:12.928Z,96893.34
2022-10-17T01:12:53.166Z,96886.75
2022-10-17T01:15:27.807Z,96878.63
2022-10-17T01:18:04.946Z,96876.47
2022-10-17T01:21:00.384Z,96881.72
2022-10-17T01:24:05.579Z,96890.97
2022-10-17T01:26:48.789Z,96882.56
2022-10-17T01:29:34.810Z,96886.66
2022-10-17T01:32:06.005Z,96884.94
2022-10-17T01:34:37.128Z,96870.97
2022-10-17T01:37:08.222Z,96863.78
2022-10-17T01:39:45.333Z,96881.53
2022-10-17T01:42:18.572Z,96858.81
2022-10-17T01:44:49.734Z,96858.22
2022-10-17T01:47:21.101Z,96877.22
2022-10-17T01:49:51.207Z,96854.19
2022-10-17T01:52:22.312Z,96866.44
2022-10-17T01:54:52.652Z,96862.22
2022-10-17T01:57:24.834Z,96869.41
2022-10-17T01:59:57.836Z,96864.28
2022-10-17T02:02:32.806Z,96865.13
2022-10-17T02:05:05.388Z,96871.09
2022-10-17T02:07:36.506Z,96865.13
2022-10-17T02:10:14.496Z,96857.81
2022-10-17T02:12:49.166Z,96860.56
2022-10-17T02:15:36.002Z,96861.94
2022-10-17T02:18:24.605Z,96875.94
2022-10-17T02:20:55.733Z,96821.25
2022-10-17T02:23:28.984Z,96884.97
2022-10-17T02:26:05.334Z,96834.69
2022-10-17T02:28:39.923Z,96883.34
2022-10-17T02:31:10.392Z,96874.81
2022-10-17T02:33:43.615Z,96880.06
2022-10-17T02:36:17.928Z,96811.31
2022-10-17T02:39:02.408Z,96886.13
2022-10-17T02:41:31.701Z,96889.47
2022-10-17T02:44:02.372Z,96883.56
2022-10-17T02:46:31.945Z,96887.13
2022-10-17T02:49:03.162Z,96790.41
2022-10-17T02:51:36.401Z,96891.44
2022-10-17T02:54:09.890Z,96894.09
2022-10-17T02:56:42.457Z,96898.59
2022-10-17T02:59:11.586Z,96896.34
2022-10-17T03:01:39.885Z,96874.91
2022-10-17T03:04:11.034Z,96874.91
2022-10-17T03:06:39.145Z,96896.72
2022-10-17T03:09:07.975Z,96902.69
2022-10-17T03:11:35.954Z,96907.19
2022-10-17T03:14:03.995Z,96892.31
2022-10-17T03:16:31.998Z,96912.53
2022-10-17T03:18:59.986Z,96890.34
2022-10-17T03:21:29.346Z,96905.31
2022-10-17T03:23:57.381Z,96910.66
2022-10-17T03:26:25.511Z,96909.91
2022-10-17T03:28:54.559Z,96906.56
2022-10-17T03:31:23.261Z,96912.47
2022-10-17T03:33:51.365Z,96899.66
2022-10-17T03:36:20.352Z,96910.94
2022-10-17T03:38:49.717Z,96918.75
2022-10-17T03:41:17.789Z,96911.06
2022-10-17T03:43:45.776Z,96915.19
2022-10-17T03:46:13.931Z,96907.09
2022-10-17T03:48:41.963Z,96920.53
2022-10-17T03:51:10.698Z,96921.03
2022-10-17T03:53:38.755Z,96924.88
2022-10-17T03:56:15.920Z,96923.06
2022-10-17T03:58:44.258Z,96833.22
2022-10-17T04:01:13.589Z,96929.59
2022-10-17T04:03:42.014Z,96880.84
2022-10-17T04:06:12.781Z,96922.75
2022-10-17T04:08:42.669Z,96932.16
2022-10-17T04:11:12.690Z,96926.50
2022-10-17T04:13:42.106Z,96932.28
2022-10-17T04:16:12.843Z,96935.31
2022-10-17T04:18:40.934Z,96884.47
2022-10-17T04:21:09.532Z,96930.56
2022-10-17T04:23:37.661Z,96932.03
2022-10-17T04:26:06.828Z,96933.66
2022-10-17T04:28:35.498Z,96914.78
2022-10-17T04:31:06.639Z,96940.53
2022-10-17T04:33:35.399Z,96938.78
2022-10-17T04:36:05.418Z,96944.00
2022-10-17T04:38:34.055Z,96937.25
2022-10-17T04:41:03.379Z,96939.88
2022-10-17T04:43:31.451Z,96926.41
2022-10-17T04:45:59.532Z,96914.16
2022-10-17T04:48:30.146Z,96947.13
2022-10-17T04:50:59.228Z,96955.00
2022-10-17T04:53:28.145Z,96951.63
2022-10-17T04:55:56.178Z,96912.75
2022-10-17T04:58:24.363Z,96952.09
2022-10-17T05:00:52.524Z,96708.91
2022-10-17T05:03:20.548Z,96936.03
2022-10-17T05:05:49.984Z,96949.81
2022-10-17T05:08:18.082Z,96938.66
2022-10-17T05:10:47.668Z,96940.31
2022-10-17T05:13:16.363Z,96938.28
2022-10-17T05:15:44.386Z,96937.47
2022-10-17T05:18:12.574Z,96954.38
2022-10-17T05:20:40.641Z,96957.88
2022-10-17T05:23:10.123Z,96953.63
2022-10-17T05:25:38.140Z,96961.41
2022-10-17T05:28:06.355Z,96945.28
2022-10-17T05:30:37.478Z,96967.56
2022-10-17T05:33:05.747Z,96969.19
2022-10-17T05:35:33.875Z,96972.38
2022-10-17T05:38:01.946Z,96978.34
2022-10-17T05:40:31.366Z,96966.72
2022-10-17T05:42:59.351Z,96971.75
2022-10-17T05:45:27.548Z,96959.97
2022-10-17T05:47:55.676Z,96995.53
2022-10-17T05:50:25.227Z,96997.16
2022-10-17T05:52:54.921Z,96980.47
2022-10-17T05:55:22.948Z,96989.03
2022-10-17T05:57:54.026Z,96975.28
2022-10-17T06:00:22.916Z,97003.00
2022-10-17T06:02:51.574Z,96999.13
2022-10-17T06:05:21.225Z,96977.91
2022-10-17T06:07:52.562Z,97010.06
2022-10-17T06:10:20.788Z,97006.50
2022-10-17T06:12:48.885Z,96997.25
2022-10-17T06:15:18.548Z,97016.03
2022-10-17T06:17:46.797Z,97015.69
2022-10-17T06:20:15.206Z,97002.03
2022-10-17T06:22:43.242Z,97012.34
2022-10-17T06:25:12.005Z,97011.03
2022-10-17T06:27:40.177Z,97020.50
2022-10-17T06:30:20.384Z,96999.25
2022-10-17T06:32:53.609Z,97017.69
2022-10-17T06:35:23.770Z,97017.81
2022-10-17T06:37:52.023Z,97019.78
2022-10-17T06:40:20.371Z,96937.09
2022-10-17T06:42:48.714Z,97007.97
2022-10-17T06:45:18.721Z,97018.38
2022-10-17T06:47:49.394Z,97027.50
2022-10-17T06:50:18.941Z,97018.25
2022-10-17T06:52:47.509Z,97037.56
2022-10-17T06:55:19.964Z,96958.09
2022-10-17T06:57:52.826Z,97037.25
2022-10-17T07:00:21.484Z,97042.25
2022-10-17T07:02:51.515Z,97032.97
2022-10-17T07:05:20.620Z,97041.38
2022-10-17T07:07:51.079Z,97043.72
2022-10-17T07:10:21.621Z,97044.41
2022-10-17T07:13:02.999Z,97045.16
2022-10-17T07:15:32.486Z,97042.53
2022-10-17T07:18:02.331Z,97041.25
2022-10-17T07:20:33.828Z,97019.94
2022-10-17T07:23:01.917Z,97052.09
2022-10-17T07:25:30.085Z,97046.69
2022-10-17T07:27:58.368Z,97048.38
2022-10-17T07:30:26.680Z,97047.22
2022-10-17T07:32:55.819Z,97046.38
2022-10-17T07:35:25.380Z,97037.03
2022-10-17T07:37:53.536Z,97047.91
2022-10-17T07:40:21.691Z,97048.59
2022-10-17T07:42:50.178Z,97055.00
2022-10-17T07:45:18.662Z,97039.94
2022-10-17T07:47:47.046Z,97054.88
2022-10-17T07:50:15.608Z,96966.63
2022-10-17T07:52:45.115Z,97038.69
2022-10-17T07:55:13.425Z,97053.22
2022-10-17T07:57:41.553Z,97054.13
2022-10-17T08:00:11.838Z,97046.59
2022-10-17T08:02:41.036Z,97037.00
2022-10-17T08:05:10.352Z,97054.84
2022-10-17T08:07:39.103Z,97045.19
2022-10-17T08:12:37.740Z,97044.94
2022-10-17T08:15:07.075Z,97034.91
2022-10-17T08:17:35.823Z,97039.94
2022-10-17T08:20:04.155Z,97047.25
2022-10-17T08:22:32.432Z,97053.22
2022-10-17T08:25:00.874Z,97031.16
2022-10-17T08:27:30.527Z,97036.22
2022-10-17T08:29:59.029Z,97045.78
2022-10-17T08:32:29.488Z,97034.63
2022-10-17T08:34:58.337Z,97046.69
2022-10-17T08:37:26.879Z,97039.03
2022-10-17T08:39:57.530Z,97026.72
2022-10-17T08:42:39.775Z,97033.16
2022-10-17T08:45:16.352Z,97015.91
2022-10-17T08:47:47.163Z,97017.94
2022-10-17T08:50:19.973Z,97029.69
2022-10-17T08:52:51.502Z,97021.47
2022-10-17T08:55:23.928Z,97026.81
2022-10-17T08:57:53.490Z,97032.97
2022-10-17T09:00:22.608Z,97028.25
2022-10-17T09:02:59.988Z,97026.78
2022-10-17T09:05:37.272Z,96918.56
2022-10-17T09:08:17.050Z,97016.41
2022-10-17T09:10:53.995Z,97029.19
2022-10-17T09:13:32.341Z,97028.91
2022-10-17T09:16:31.119Z,97005.25
2022-10-17T09:19:04.661Z,97007.41
2022-10-17T09:21:42.306Z,97039.31
2022-10-17T09:24:16.039Z,97028.56
2022-10-17T09:26:48.041Z,97027.31
2022-10-17T09:29:21.633Z,97027.94
2022-10-17T09:34:30.815Z,96965.41
2022-10-17T09:37:00.534Z,97018.53
2022-10-17T09:39:32.028Z,97020.91
2022-10-17T09:42:02.166Z,97013.09
2022-10-17T09:44:34.078Z,97012.19
2022-10-17T09:47:20.561Z,97022.34
2022-10-17T09:49:49.989Z,97024.53
2022-10-17T09:52:19.892Z,97027.41
2022-10-17T09:54:49.792Z,97016.72
2022-10-17T09:57:19.382Z,97021.78
2022-10-17T09:59:56.966Z,97017.97
2022-10-17T10:02:27.533Z,97019.72
2022-10-17T10:05:06.393Z,97016.31
2022-10-17T10:07:37.872Z,97013.66
2022-10-17T10:10:09.363Z,96983.53
2022-10-17T10:12:39.783Z,97014.97
2022-10-17T10:15:34.555Z,97015.22
2022-10-17T10:18:02.803Z,97008.00
2022-10-17T10:20:34.474Z,97012.59
2022-10-17T10:23:13.643Z,97027.88
2022-10-17T10:25:52.260Z,97006.06
2022-10-17T10:28:21.501Z,97014.84
2022-10-17T10:30:52.680Z,97013.19
2022-10-17T10:33:21.715Z,97010.41
2022-10-17T10:35:55.606Z,97004.41
2022-10-17T10:38:24.213Z,97003.06
2022-10-17T10:40:56.590Z,97006.69
2022-10-17T10:43:31.151Z,97004.69
2022-10-17T10:46:01.252Z,96989.53
2022-10-17T10:48:33.352Z,97012.25
2022-10-17T10:51:04.111Z,97018.81
2022-10-17T10:53:38.386Z,97007.16
2022-10-17T10:56:11.859Z,97008.31
2022-10-17T10:58:45.060Z,97001.63
2022-10-17T11:01:21.747Z,97003.44
2022-10-17T11:03:59.755Z,96995.72
2022-10-17T11:06:30.923Z,97003.88
2022-10-17T11:09:11.122Z,96998.19
2022-10-17T11:11:42.603Z,96975.59
2022-10-17T11:14:14.590Z,96992.06
2022-10-17T11:16:48.612Z,97010.97
2022-10-17T11:19:22.105Z,97001.28
2022-10-17T11:21:59.986Z,96981.44
2022-10-17T11:24:32.814Z,96991.44
2022-10-17T11:27:03.070Z,96961.13
2022-10-17T11:29:33.570Z,97004.38
2022-10-17T11:32:05.285Z,97005.66
2022-10-17T11:34:36.531Z,96988.59
2022-10-17T11:37:10.999Z,97000.13
2022-10-17T11:42:16.589Z,96987.41
2022-10-17T11:44:45.295Z,96991.59
2022-10-17T11:47:26.497Z,96931.00
2022-10-17T11:51:59.674Z,96987.28
2022-10-17T11:52:57.084Z,96972.59
2022-10-17T11:55:26.783Z,96998.84
2022-10-17T11:58:07.154Z,96983.72
2022-10-17T12:00:47.516Z,96980.63
2022-10-17T12:03:46.866Z,96916.19
2022-10-17T12:06:25.840Z,96981.72
2022-10-17T12:09:02.087Z,96914.34
2022-10-17T12:11:43.937Z,96978.84
2022-10-17T12:14:36.818Z,96980.53
2022-10-17T12:17:06.667Z,96975.34
2022-10-17T12:19:37.531Z,96920.09
2022-10-17T12:22:21.028Z,96936.34
2022-10-17T12:24:57.661Z,96966.06
2022-10-17T12:27:42.478Z,96898.97
2022-10-17T12:30:19.906Z,96970.13
2022-10-17T12:33:07.444Z,96952.72
2022-10-17T12:35:39.105Z,96894.06
2022-10-17T12:38:21.643Z,96972.25
2022-10-17T12:40:54.821Z,96934.09
2022-10-17T12:46:46.316Z,96978.25
2022-10-17T12:49:39.361Z,96978.44
2022-10-17T12:52:23.627Z,96964.69
2022-10-17T12:55:12.526Z,96957.63
2022-10-17T12:57:45.828Z,96976.31
2022-10-17T13:00:22.249Z,96967.31
2022-10-17T13:02:53.221Z,96964.25
2022-10-17T13:05:29.160Z,96952.56
2022-10-17T13:08:01.466Z,96973.00
2022-10-17T13:10:32.584Z,96980.09
2022-10-17T13:13:06.521Z,96980.47
2022-10-17T13:15:35.158Z,96964.97
2022-10-17T13:18:03.378Z,96970.66
2022-10-17T13:20:32.924Z,96974.09
2022-10-17T13:23:02.711Z,96984.09
2022-10-17T13:25:31.063Z,96986.28
2022-10-17T13:28:08.561Z,96977.59
2022-10-17T13:30:38.143Z,96968.88
2022-10-17T13:33:20.578Z,96971.19
2022-10-17T13:35:59.982Z,96964.06
2022-10-17T13:38:35.636Z,96969.00
2022-10-17T13:41:34.291Z,96967.56
2022-10-17T13:44:01.005Z,96951.72
2022-10-17T13:46:39.819Z,96938.69
2022-10-17T13:49:23.307Z,96963.50
2022-10-17T13:51:55.370Z,96957.06
2022-10-17T13:54:40.525Z,96962.97
2022-10-17T13:57:19.291Z,96974.22
2022-10-17T13:59:49.135Z,96974.66
2022-10-17T14:02:19.257Z,96952.97
2022-10-17T14:05:15.565Z,96975.06
2022-10-17T14:08:05.858Z,96968.06
2022-10-17T14:10:32.336Z,96973.44
2022-10-17T14:13:01.836Z,96962.75
2022-10-17T14:15:32.426Z,96963.88
2022-10-17T14:18:05.435Z,96967.91
2022-10-17T14:23:34.327Z,96973.50
2022-10-17T14:26:09.285Z,96952.50
2022-10-17T14:28:37.880Z,96972.97
2022-10-17T14:31:22.954Z,96973.25
2022-10-17T14:33:56.295Z,96972.47
2022-10-17T14:36:38.840Z,96942.47
2022-10-17T14:39:13.326Z,96975.41
2022-10-17T14:41:45.935Z,96973.97
2022-10-17T14:44:21.723Z,96959.47
2022-10-17T14:46:53.985Z,96962.84
2022-10-17T14:49:27.307Z,96974.91
2022-10-17T14:52:22.076Z,96909.78
2022-10-17T14:54:51.224Z,96971.63
2022-10-17T14:57:25.550Z,96984.91
2022-10-17T14:59:55.634Z,96910.78
2022-10-17T15:02:26.201Z,96969.94
2022-10-17T15:04:56.354Z,96974.53
2022-10-17T15:07:25.772Z,96972.44
2022-10-17T15:09:54.934Z,96963.00
2022-10-17T15:12:26.802Z,96980.03
2022-10-17T15:14:55.752Z,96976.81
2022-10-17T15:17:27.103Z,96969.50
2022-10-17T15:19:55.646Z,96970.72
2022-10-17T15:22:24.563Z,96980.63
2022-10-17T15:24:53.028Z,96955.66
2022-10-17T15:27:26.379Z,96972.63
2022-10-17T15:29:54.780Z,96963.03
2022-10-17T15:32:23.550Z,96979.81
2022-10-17T15:34:52.351Z,96966.22
2022-10-17T15:37:23.014Z,96962.91
2022-10-17T15:39:54.714Z,96980.16
2022-10-17T15:42:30.608Z,96954.84
2022-10-17T15:44:59.383Z,96980.09
2022-10-17T15:47:31.477Z,96950.47
2022-10-17T15:50:01.645Z,96952.00
2022-10-17T15:52:31.003Z,96979.31
2022-10-17T15:55:02.547Z,96985.47
2022-10-17T15:57:39.563Z,96990.09
2022-10-17T16:00:16.340Z,96970.28
2022-10-17T16:02:46.004Z,96992.13
2022-10-17T16:05:17.795Z,96985.88
2022-10-17T16:07:47.929Z,96988.53
2022-10-17T16:10:16.545Z,96957.44
2022-10-17T16:12:50.486Z,96970.34
2022-10-17T16:15:22.600Z,96941.94
2022-10-17T16:17:51.624Z,96906.03
2022-10-17T16:20:20.924Z,96977.22
2022-10-17T16:22:49.752Z,97002.16
2022-10-17T16:25:20.555Z,96977.97
2022-10-17T16:27:53.972Z,96994.06
2022-10-17T16:30:23.769Z,97016.97
2022-10-17T16:32:54.684Z,96993.16
2022-10-17T16:35:25.350Z,96958.31
2022-10-17T16:37:53.815Z,97016.09
2022-10-17T16:40:22.438Z,96974.84
2022-10-17T16:42:52.463Z,96994.47
2022-10-17T16:45:22.945Z,97010.28
2022-10-17T16:47:53.104Z,97011.66
2022-10-17T16:50:22.119Z,96940.66
2022-10-17T16:52:50.616Z,97017.16
2022-10-17T16:55:20.804Z,97003.22
2022-10-17T16:57:49.956Z,97019.59
2022-10-17T17:00:19.518Z,97035.66
2022-10-17T17:02:49.980Z,96953.50
2022-10-17T17:05:20.225Z,97026.00
2022-10-17T17:07:49.553Z,96988.78
2022-10-17T17:10:18.084Z,96974.34
2022-10-17T17:12:46.455Z,97006.09
2022-10-17T17:15:15.066Z,96998.59
2022-10-17T17:17:50.551Z,97002.13
2022-10-17T17:20:20.323Z,97025.00
2022-10-17T17:22:51.019Z,97029.25
2022-10-17T17:25:19.930Z,97025.56
2022-10-17T17:27:50.288Z,97031.53
2022-10-17T17:30:19.846Z,97028.38
2022-10-17T17:32:50.451Z,97037.94
2022-10-17T17:35:19.507Z,97005.31
2022-10-17T17:37:48.162Z,97036.28
2022-10-17T17:40:18.391Z,97045.13
2022-10-17T17:42:47.203Z,97035.31
2022-10-17T17:45:16.509Z,97024.13
2022-10-17T17:47:45.545Z,97018.06
2022-10-17T17:50:20.420Z,97043.97
2022-10-17T17:52:51.627Z,97044.50
2022-10-17T17:55:20.632Z,97043.88
2022-10-17T17:57:49.426Z,97040.28
2022-10-17T18:00:17.862Z,97033.44
2022-10-17T18:02:48.204Z,97052.66
2022-10-17T18:05:19.186Z,97026.72
2022-10-17T18:07:48.615Z,97050.03
2022-10-17T18:10:18.009Z,97030.53
2022-10-17T18:12:47.347Z,97050.41
2022-10-17T18:15:16.154Z,97027.06
2022-10-17T18:17:45.205Z,97039.72
2022-10-17T18:20:14.546Z,97057.56
2022-10-17T18:22:44.728Z,97036.75
2022-10-17T18:25:13.356Z,97060.88
2022-10-17T18:27:42.471Z,96992.34
2022-10-17T18:30:12.344Z,97061.91
2022-10-17T18:32:41.270Z,96950.41
2022-10-17T18:35:11.043Z,97064.16
2022-10-17T18:40:11.931Z,97050.19
2022-10-17T18:42:43.455Z,97053.16
2022-10-17T18:45:12.728Z,97064.59
2022-10-17T18:47:45.483Z,97046.00
2022-10-17T18:50:13.849Z,97074.59
2022-10-17T18:52:43.185Z,97032.53
2022-10-17T18:55:13.359Z,97077.00
2022-10-17T18:57:41.844Z,97030.72
2022-10-17T19:00:12.700Z,97032.25
2022-10-17T19:02:41.872Z,97072.44
2022-10-17T19:05:11.312Z,97063.44
2022-10-17T19:07:40.352Z,97068.00
2022-10-17T19:10:09.690Z,97070.38
2022-10-17T19:12:39.610Z,97077.75
2022-10-17T19:15:09.488Z,97078.84
2022-10-17T19:17:38.211Z,96961.38
2022-10-17T19:20:08.395Z,97079.81
2022-10-17T19:22:36.746Z,97065.41
2022-10-17T19:25:06.171Z,97072.66
2022-10-17T19:27:35.277Z,97090.47
2022-10-17T19:30:06.525Z,97088.00
2022-10-17T19:32:36.901Z,97077.47
2022-10-17T19:35:06.678Z,97079.34
2022-10-17T19:37:35.603Z,97076.75
2022-10-17T19:40:04.461Z,97073.00
2022-10-17T19:42:35.340Z,97087.31
2022-10-17T19:45:06.000Z,97037.88
2022-10-17T19:47:35.559Z,97064.94
2022-10-17T19:50:04.945Z,97098.09
2022-10-17T19:52:34.052Z,97076.56
2022-10-17T19:55:03.093Z,97081.34
2022-10-17T19:57:32.051Z,97081.00
2022-10-17T20:00:01.197Z,97093.53
2022-10-17T20:02:32.359Z,97091.31
2022-10-17T20:05:17.599Z,97071.03
2022-10-17T20:07:47.362Z,97062.44
2022-10-17T20:10:16.596Z,97084.38
2022-10-17T20:12:45.578Z,97116.84
2022-10-17T20:15:15.159Z,97119.44
2022-10-17T20:17:45.659Z,97109.13
2022-10-17T20:20:14.527Z,97069.94
2022-10-17T20:22:44.393Z,97106.53
2022-10-17T20:25:13.479Z,97111.56
2022-10-17T20:27:42.372Z,97112.94
2022-10-17T20:30:12.218Z,97110.47
2022-10-17T20:32:41.148Z,97007.50
2022-10-17T20:35:12.171Z,97111.38
2022-10-17T20:37:42.728Z,97113.00
2022-10-17T20:43:02.645Z,97105.03
2022-10-17T20:45:44.245Z,97100.06
2022-10-17T20:48:20.513Z,97114.50
2022-10-17T20:50:51.154Z,97103.00
2022-10-17T20:53:37.325Z,97008.25
2022-10-17T20:56:13.327Z,97116.72
2022-10-17T20:58:42.223Z,97123.03
2022-10-17T21:01:12.024Z,97104.38
2022-10-17T21:03:44.024Z,97091.25
2022-10-17T21:06:17.061Z,97111.75
2022-10-17T21:08:46.232Z,97114.56
2022-10-17T21:11:17.382Z,97119.00
2022-10-17T21:13:47.261Z,97110.56
2022-10-17T21:16:17.588Z,97082.38
2022-10-17T21:18:46.355Z,97082.16
2022-10-17T21:21:18.648Z,97073.44
2022-10-17T21:23:49.043Z,97071.09
2022-10-17T21:26:18.280Z,97087.38
2022-10-17T21:28:48.086Z,97078.88
2022-10-17T21:31:19.767Z,97029.28
2022-10-17T21:33:49.861Z,97102.47
2022-10-17T21:36:20.414Z,97078.56
2022-10-17T21:38:51.151Z,97103.13
2022-10-17T21:41:21.962Z,97114.34
2022-10-17T21:43:53.991Z,97100.41
2022-10-17T21:46:25.506Z,97117.16
2022-10-17T21:48:54.671Z,97091.28
2022-10-17T21:51:26.085Z,97117.56
2022-10-17T21:53:56.189Z,97111.31
2022-10-17T21:56:29.095Z,97113.06
2022-10-17T21:58:58.331Z,97127.16
2022-10-17T22:01:28.537Z,97118.63
2022-10-17T22:03:58.774Z,97111.22
2022-10-17T22:06:47.087Z,97080.44
2022-10-17T22:09:19.609Z,97091.94
2022-10-17T22:11:49.981Z,97115.25
2022-10-17T22:14:21.057Z,97088.97
2022-10-17T22:16:50.596Z,97088.25
2022-10-17T22:19:27.379Z,97115.81
2022-10-17T22:21:57.776Z,97103.69
2022-10-17T22:24:26.412Z,97109.44
2022-10-17T22:26:55.112Z,97108.72
2022-10-17T22:29:24.230Z,97104.72
2022-10-17T22:31:52.609Z,97064.00
2022-10-17T22:34:21.141Z,97081.50
2022-10-17T22:36:49.965Z,97112.31
2022-10-17T22:39:20.262Z,97053.88
2022-10-17T22:41:48.896Z,97107.91
2022-10-17T22:44:17.788Z,97088.06
2022-10-17T22:46:46.473Z,97100.19
2022-10-17T22:49:15.599Z,97099.56
2022-10-17T22:51:44.492Z,97082.00
2022-10-17T22:54:13.662Z,97078.31
2022-10-17T22:56:43.595Z,97100.81
2022-10-17T22:59:12.608Z,97100.41
2022-10-17T23:01:41.400Z,97036.22
2022-10-17T23:04:10.186Z,97059.63
2022-10-17T23:06:38.819Z,97086.13
2022-10-17T23:09:07.657Z,97072.88
2022-10-17T23:11:36.610Z,97087.47
2022-10-17T23:14:06.924Z,97086.84
2022-10-17T23:16:35.239Z,97048.25
2022-10-17T23:19:03.984Z,97082.25
2022-10-17T23:21:32.786Z,97089.97
2022-10-17T23:24:01.647Z,97079.47
2022-10-17T23:26:30.443Z,96994.44
2022-10-17T23:28:59.197Z,97069.91
2022-10-17T23:31:29.523Z,97012.91
2022-10-17T23:33:58.285Z,97053.16
2022-10-17T23:36:27.277Z,97065.91
2022-10-17T23:38:58.457Z,97068.16
2022-10-17T23:41:27.163Z,97050.09
2022-10-17T23:43:55.619Z,97068.06
2022-10-17T23:46:24.155Z,97071.47
2022-10-17T23:48:54.177Z,97044.25
2022-10-17T23:51:22.775Z,97065.81
2022-10-17T23:53:51.536Z,97034.38
2022-10-17T23:56:20.788Z,97039.28
2022-10-17T23:58:49.702Z,97047.53
